Time;durP1;ratioP1;P1;durP2;ratioP2;P2;SDS_P1;SDS_P2;PMS_P1;PMS_P2;Temp;Humidity;BMP_temperature;BMP_pressure;BME280_temperature;BME280_humidity;BME280_pressure;Samples;Min_cycle;Max_cycle;Signal;HPM_P1;HPM_P2
2021/04/03 00:00:41;;;;;;;15.82;5.65;;;;;;;6.18;72.10;96956.66;4947965;28;20574;-70
2021/04/03 00:03:10;;;;;;;15.15;4.50;;;;;;;6.09;72.65;96959.59;4952463;28;20252;-70
2021/04/03 00:05:38;;;;;;;15.15;5.38;;;;;;;6.20;71.74;96954.84;4946906;28;20205;-70
2021/04/03 00:08:10;;;;;;;19.90;5.50;;;;;;;6.21;71.05;96951.38;4947551;28;20765;-70
2021/04/03 00:10:44;;;;;;;12.00;5.45;;;;;;;6.26;70.76;96959.78;4962337;28;20346;-71
2021/04/03 00:13:12;;;;;;;12.80;4.47;;;;;;;6.41;70.65;96966.94;4947634;28;20670;-70
2021/04/03 00:15:39;;;;;;;13.40;5.43;;;;;;;6.38;70.65;96956.69;4951118;28;20194;-70
2021/04/03 00:18:06;;;;;;;10.73;5.07;;;;;;;6.45;69.48;96951.25;4950823;28;20586;-70
2021/04/03 00:20:35;;;;;;;13.10;5.10;;;;;;;6.45;69.26;96958.13;4950117;28;20202;-69
2021/04/03 00:23:04;;;;;;;13.48;5.13;;;;;;;6.51;68.93;96955.31;4948138;28;21283;-70
2021/04/03 00:25:32;;;;;;;8.68;4.43;;;;;;;6.50;68.75;96958.81;4960046;28;20537;-70
2021/04/03 00:27:59;;;;;;;10.05;5.20;;;;;;;6.47;68.93;96967.53;4938624;28;20254;-70
2021/04/03 00:30:26;;;;;;;20.63;5.38;;;;;;;6.56;68.33;96961.16;4937472;28;20337;-70
2021/04/03 00:32:54;;;;;;;8.73;4.90;;;;;;;6.46;68.76;96965.84;4938160;28;20649;-71
2021/04/03 00:35:23;;;;;;;11.20;5.32;;;;;;;6.49;67.79;96954.53;4945418;28;20187;-71
2021/04/03 00:37:54;;;;;;;20.10;4.75;;;;;;;6.62;67.35;96953.16;4946263;28;20562;-71
2021/04/03 00:40:24;;;;;;;11.57;5.55;;;;;;;6.65;66.67;96953.00;4952695;28;20571;-70
2021/04/03 00:42:52;;;;;;;18.90;4.85;;;;;;;6.66;66.66;96955.53;4948802;28;20226;-70
2021/04/03 00:45:21;;;;;;;14.85;5.15;;;;;;;6.70;66.94;96966.59;4963339;28;20249;-71
2021/04/03 00:47:49;;;;;;;16.40;5.13;;;;;;;6.69;66.13;96939.06;4948823;28;20230;-70
2021/04/03 00:50:21;;;;;;;7.57;4.75;;;;;;;6.80;66.22;96965.31;4938050;28;20571;-70
2021/04/03 00:52:48;;;;;;;7.38;4.68;;;;;;;6.81;66.39;96964.41;4935974;28;20547;-70
2021/04/03 00:55:15;;;;;;;12.68;4.45;;;;;;;6.81;65.90;96959.22;4937003;28;20195;-71
2021/04/03 00:57:44;;;;;;;9.00;4.10;;;;;;;6.79;65.73;96959.28;4947743;28;20214;-70
2021/04/03 01:00:13;;;;;;;15.40;4.80;;;;;;;6.66;66.32;96957.28;4964183;28;20194;-70
2021/04/03 01:02:40;;;;;;;9.05;4.88;;;;;;;6.82;65.74;96963.50;4937022;28;20225;-71
2021/04/03 01:05:11;;;;;;;8.00;4.43;;;;;;;6.80;65.37;96957.56;4947185;28;20180;-70
2021/04/03 01:07:38;;;;;;;14.95;4.70;;;;;;;6.90;65.79;96958.84;4945263;28;20261;-70
2021/04/03 01:10:06;;;;;;;13.40;5.13;;;;;;;6.99;65.45;96958.47;4949566;28;20195;-69
2021/04/03 01:12:56;;;;;;;6.95;4.40;;;;;;;7.00;64.70;96952.41;4962763;28;20688;-70
2021/04/03 01:15:33;;;;;;;10.90;5.15;;;;;;;6.96;65.01;96948.25;4951316;28;20242;-69
2021/04/03 01:18:10;;;;;;;13.18;4.68;;;;;;;6.88;65.41;96953.75;4948445;28;20594;-70
2021/04/03 01:20:50;;;;;;;12.50;4.85;;;;;;;6.82;65.28;96947.97;4951401;28;20217;-70
2021/04/03 01:23:58;;;;;;;9.07;4.57;;;;;;;6.90;65.09;96954.53;4946253;28;20251;-69
2021/04/03 01:27:14;;;;;;;7.93;4.20;;;;;;;6.96;64.76;96943.06;4966195;28;20532;-70
2021/04/03 01:30:01;;;;;;;13.15;4.18;;;;;;;6.99;65.04;96936.00;4957985;28;20214;-71
2021/04/03 01:32:35;;;;;;;10.80;4.72;;;;;;;6.89;65.04;96947.66;4951303;28;20226;-70
2021/04/03 01:35:06;;;;;;;6.57;3.80;;;;;;;6.95;65.04;96947.41;4947356;28;20190;-70
2021/04/03 01:37:39;;;;;;;15.65;4.55;;;;;;;7.04;64.96;96943.56;4945344;28;20654;-71
2021/04/03 01:40:10;;;;;;;12.02;4.95;;;;;;;6.91;65.82;96940.69;4949073;28;20182;-70
2021/04/03 01:42:38;;;;;;;7.25;4.10;;;;;;;6.93;65.61;96940.63;4947471;28;20237;-70
2021/04/03 01:45:08;;;;;;;10.75;5.00;;;;;;;6.91;65.87;96939.84;4950263;28;20187;-70
2021/04/03 01:47:47;;;;;;;10.45;3.80;;;;;;;6.95;65.67;96947.41;4954655;28;20779;-69
2021/04/03 01:50:25;;;;;;;12.18;4.65;;;;;;;6.97;65.94;96942.16;4953034;28;20193;-70
2021/04/03 01:52:53;;;;;;;11.63;4.40;;;;;;;6.77;65.34;96937.81;4954270;28;20715;-70
2021/04/03 01:55:27;;;;;;;12.13;4.30;;;;;;;6.51;66.29;96938.06;4969257;28;20202;-69
2021/04/03 01:57:58;;;;;;;9.88;4.55;;;;;;;6.45;66.56;96929.69;4954866;28;20242;-69
2021/04/03 02:00:30;;;;;;;8.30;4.10;;;;;;;6.59;66.91;96932.56;4950681;28;20631;-70
2021/04/03 02:02:57;;;;;;;8.48;4.13;;;;;;;6.67;66.39;96930.50;4944565;28;20225;-71
2021/04/03 02:05:25;;;;;;;8.98;4.10;;;;;;;6.65;67.13;96921.97;4950684;28;20592;-71
2021/04/03 02:07:54;;;;;;;8.27;4.40;;;;;;;6.57;67.25;96924.03;4945962;28;20780;-72
2021/04/03 02:10:24;;;;;;;13.07;4.30;;;;;;;6.51;66.83;96914.81;4948000;28;20550;-71
2021/04/03 02:12:51;;;;;;;13.73;4.50;;;;;;;6.61;66.83;96921.25;4950483;28;20218;-72
2021/04/03 02:15:19;;;;;;;8.93;4.32;;;;;;;6.51;67.74;96914.81;4963244;28;20262;-71
2021/04/03 02:17:50;;;;;;;12.77;5.35;;;;;;;6.52;67.31;96905.28;4951554;28;20226;-69
2021/04/03 02:20:25;;;;;;;8.60;3.60;;;;;;;6.64;67.10;96915.13;4950264;28;20211;-73
2021/04/03 02:22:52;;;;;;;11.07;3.72;;;;;;;6.57;67.03;96908.53;4963953;28;20225;-72
2021/04/03 02:25:19;;;;;;;17.83;4.65;;;;;;;6.57;67.16;96916.28;4961002;28;20222;-72
2021/04/03 02:27:46;;;;;;;10.00;4.07;;;;;;;6.44;67.53;96909.94;4945479;28;20862;-73
2021/04/03 02:30:18;;;;;;;12.68;4.85;;;;;;;6.29;67.80;96898.47;4948326;28;20232;-70
2021/04/03 02:32:47;;;;;;;7.97;4.32;;;;;;;6.36;67.99;96906.81;4941556;28;20543;-71
2021/04/03 02:35:17;;;;;;;13.10;5.20;;;;;;;6.16;68.05;96909.34;4945763;28;20195;-72
2021/04/03 02:37:45;;;;;;;11.32;3.40;;;;;;;6.06;68.16;96908.88;4947582;28;20214;-71
2021/04/03 02:40:16;;;;;;;6.00;3.65;;;;;;;6.14;68.31;96924.09;4948379;28;20191;-70
2021/04/03 02:42:52;;;;;;;12.15;5.30;;;;;;;6.08;68.13;96919.16;4945756;28;20226;-69
2021/04/03 02:45:22;;;;;;;7.25;4.05;;;;;;;6.00;68.42;96903.13;4979294;28;20198;-69
2021/04/03 02:47:53;;;;;;;7.03;3.67;;;;;;;6.02;68.23;96909.06;4944516;28;20234;-70
2021/04/03 02:50:22;;;;;;;6.30;3.60;;;;;;;5.97;68.84;96914.41;4946651;28;20213;-68
2021/04/03 02:52:52;;;;;;;10.45;4.20;;;;;;;5.89;68.77;96910.44;4945891;28;20458;-68
2021/04/03 02:55:23;;;;;;;14.45;3.92;;;;;;;5.80;68.33;96918.53;4945800;28;20237;-69
2021/04/03 02:57:52;;;;;;;13.13;4.65;;;;;;;5.72;69.41;96928.28;4943932;28;20288;-68
2021/04/03 03:00:21;;;;;;;18.15;4.00;;;;;;;5.71;69.35;96924.88;4948830;28;20194;-68
2021/04/03 03:02:50;;;;;;;10.05;3.55;;;;;;;5.77;69.17;96931.53;4974519;28;20726;-68
2021/04/03 03:05:18;;;;;;;14.90;5.30;;;;;;;5.70;68.79;96922.34;4943844;28;20188;-68
2021/04/03 03:07:48;;;;;;;21.00;4.60;;;;;;;5.73;69.42;96927.38;4946848;28;20643;-68
2021/04/03 03:10:16;;;;;;;10.65;4.00;;;;;;;5.62;69.50;96916.63;4945108;28;20684;-69
2021/04/03 03:12:45;;;;;;;9.18;3.88;;;;;;;5.67;68.97;96927.63;4946961;28;20218;-68
2021/04/03 03:15:14;;;;;;;9.35;3.70;;;;;;;5.60;69.25;96926.19;4945710;28;20197;-68
2021/04/03 03:17:43;;;;;;;7.25;3.45;;;;;;;5.55;69.25;96915.16;4963736;28;20257;-69
2021/04/03 03:20:12;;;;;;;6.40;3.30;;;;;;;5.42;69.62;96922.53;4948236;28;20199;-67
2021/04/03 03:22:40;;;;;;;15.63;4.20;;;;;;;5.43;69.43;96931.09;4947376;28;20239;-68
2021/04/03 03:25:08;;;;;;;9.65;4.20;;;;;;;5.41;69.75;96930.31;4957744;28;20225;-69
2021/04/03 03:27:38;;;;;;;9.50;4.20;;;;;;;5.14;70.89;96941.63;4969970;28;20298;-69
2021/04/03 03:30:07;;;;;;;11.15;3.67;;;;;;;5.08;71.45;96936.69;4968126;28;20577;-68
2021/04/03 03:32:34;;;;;;;13.40;3.50;;;;;;;5.17;70.73;96932.03;4968814;28;20761;-70
2021/04/03 03:35:02;;;;;;;9.60;4.32;;;;;;;5.00;71.06;96928.38;4969424;28;20244;-71
2021/04/03 03:37:30;;;;;;;11.52;4.40;;;;;;;4.99;71.32;96932.69;4967065;28;20221;-70
2021/04/03 03:39:58;;;;;;;8.18;4.35;;;;;;;4.96;71.62;96922.47;4968376;28;20642;-71
2021/04/03 03:42:26;;;;;;;8.63;4.13;;;;;;;5.01;71.51;96924.91;4967456;28;20214;-68
2021/04/03 03:44:53;;;;;;;11.73;5.40;;;;;;;4.82;71.19;96903.22;4968498;28;20206;-68
2021/04/03 03:47:20;;;;;;;6.93;3.60;;;;;;;4.87;71.32;96938.28;4969498;28;20653;-69
2021/04/03 03:49:47;;;;;;;8.95;4.28;;;;;;;4.86;71.42;96934.00;4968259;28;20505;-68
2021/04/03 03:52:14;;;;;;;8.45;3.33;;;;;;;4.74;72.00;96931.84;4968404;28;20221;-69
2021/04/03 03:54:43;;;;;;;5.28;3.10;;;;;;;4.62;72.11;96929.69;4968254;28;20821;-69
2021/04/03 03:57:09;;;;;;;17.42;4.10;;;;;;;4.65;72.11;96928.75;4967169;28;20641;-68
2021/04/03 03:59:36;;;;;;;7.80;3.33;;;;;;;4.54;72.53;96917.94;4970115;28;20799;-67
2021/04/03 04:02:04;;;;;;;9.18;4.78;;;;;;;4.55;72.84;96929.94;4966866;28;20213;-69
2021/04/03 04:04:31;;;;;;;5.80;3.40;;;;;;;4.52;72.56;96936.03;4965565;28;20713;-70
2021/04/03 04:06:58;;;;;;;9.85;3.42;;;;;;;4.38;72.93;96932.22;4966863;28;20629;-70
2021/04/03 04:09:26;;;;;;;20.00;5.25;;;;;;;4.28;74.10;96930.84;4966138;28;20198;-68
2021/04/03 04:11:53;;;;;;;13.57;4.10;;;;;;;4.32;73.40;96928.13;4965709;28;20499;-69
2021/04/03 04:14:20;;;;;;;9.35;4.70;;;;;;;4.42;73.55;96928.66;4968405;28;20669;-68
2021/04/03 04:16:47;;;;;;;13.15;4.38;;;;;;;4.45;73.02;96934.53;4970519;28;20213;-70
2021/04/03 04:19:14;;;;;;;15.70;4.35;;;;;;;4.44;73.22;96930.28;4982879;28;20217;-68
2021/04/03 04:21:41;;;;;;;13.63;4.68;;;;;;;4.49;73.00;96935.28;4968741;28;20332;-69
2021/04/03 04:24:09;;;;;;;13.75;3.97;;;;;;;4.50;72.98;96939.56;4968553;28;20261;-69
2021/04/03 04:26:36;;;;;;;13.40;5.45;;;;;;;4.57;73.23;96944.47;4945637;28;20568;-69
2021/04/03 04:29:03;;;;;;;15.15;4.68;;;;;;;4.64;72.77;96950.28;4946803;28;20406;-70
2021/04/03 04:31:30;;;;;;;11.10;4.05;;;;;;;4.55;73.28;96953.97;4948945;28;20603;-71
2021/04/03 04:33:58;;;;;;;13.30;4.45;;;;;;;4.43;73.96;96954.38;4947918;28;20218;-71
2021/04/03 04:36:25;;;;;;;4.15;3.08;;;;;;;4.35;74.58;96942.66;4948318;28;20704;-72
2021/04/03 04:38:52;;;;;;;9.65;4.10;;;;;;;4.51;73.93;96954.13;4946228;28;20221;-70
2021/04/03 04:41:19;;;;;;;14.55;4.72;;;;;;;4.49;73.54;96955.91;4946738;28;20629;-70
2021/04/03 04:43:46;;;;;;;11.20;4.47;;;;;;;4.51;73.57;96964.44;4945286;28;20225;-71
2021/04/03 04:46:13;;;;;;;7.25;4.10;;;;;;;4.29;74.23;96958.28;4949260;28;20194;-71
2021/04/03 04:48:40;;;;;;;8.38;3.97;;;;;;;4.35;74.42;96958.94;4946014;28;20234;-71
2021/04/03 04:51:08;;;;;;;10.05;4.40;;;;;;;4.58;74.28;96963.34;4945351;28;20712;-71
2021/04/03 04:53:35;;;;;;;8.93;3.78;;;;;;;4.76;73.71;96961.00;4949148;28;20226;-68
2021/04/03 04:56:02;;;;;;;18.10;4.72;;;;;;;4.81;73.33;96966.84;4946685;28;20220;-70
2021/04/03 04:58:29;;;;;;;8.75;4.25;;;;;;;4.91;73.53;96970.81;4946878;28;20668;-71
2021/04/03 05:00:56;;;;;;;19.90;4.60;;;;;;;4.97;72.92;96980.06;4946663;28;20707;-71
2021/04/03 05:03:24;;;;;;;11.77;4.13;;;;;;;4.99;72.65;96978.25;4946734;28;20277;-71
2021/04/03 05:05:50;;;;;;;10.77;3.67;;;;;;;4.95;73.18;96976.69;4947158;28;20265;-71
2021/04/03 05:08:17;;;;;;;8.02;4.00;;;;;;;4.98;73.21;96987.75;4945098;28;20230;-70
2021/04/03 05:10:44;;;;;;;10.00;3.33;;;;;;;5.10;72.50;96981.34;4947231;28;20456;-69
2021/04/03 05:13:11;;;;;;;9.18;3.28;;;;;;;5.14;72.27;96975.16;4947032;28;20609;-68
2021/04/03 05:15:38;;;;;;;6.68;3.33;;;;;;;5.28;71.87;96988.41;4961558;28;20633;-70
2021/04/03 05:18:05;;;;;;;14.88;4.07;;;;;;;5.21;71.49;96984.38;4949700;28;20214;-70
2021/04/03 05:20:33;;;;;;;13.63;3.45;;;;;;;5.28;72.02;96993.59;4946621;28;20198;-70
2021/04/03 05:23:00;;;;;;;13.27;3.97;;;;;;;5.24;71.89;96994.59;4949028;28;20231;-70
2021/04/03 05:25:27;;;;;;;13.43;4.78;;;;;;;5.15;71.98;96990.59;4962880;28;20613;-71
2021/04/03 05:27:54;;;;;;;9.38;3.60;;;;;;;5.26;72.45;96990.22;4946730;28;20580;-71
2021/04/03 05:30:22;;;;;;;7.15;3.90;;;;;;;5.40;71.53;96995.75;4946529;28;20203;-73
2021/04/03 05:32:49;;;;;;;8.52;3.13;;;;;;;5.49;70.75;96996.25;4957500;28;20532;-70
2021/04/03 05:35:16;;;;;;;7.00;3.60;;;;;;;5.53;71.44;97008.16;4938150;28;20202;-70
2021/04/03 05:37:45;;;;;;;5.28;3.45;;;;;;;5.53;71.02;97007.31;4936912;28;20223;-70
2021/04/03 05:40:13;;;;;;;12.75;3.47;;;;;;;5.58;71.31;96995.94;4963568;28;20715;-70
2021/04/03 05:42:45;;;;;;;9.00;3.75;;;;;;;5.68;70.72;97005.00;4950474;28;20657;-69
2021/04/03 05:45:16;;;;;;;10.15;3.50;;;;;;;5.61;71.21;97005.31;4961887;28;20593;-69
2021/04/03 05:47:43;;;;;;;9.18;4.05;;;;;;;5.71;70.43;97016.97;4947577;28;20672;-70
2021/04/03 05:50:13;;;;;;;13.18;3.40;;;;;;;5.81;70.67;97019.19;4947882;28;20195;-70
2021/04/03 05:52:41;;;;;;;8.02;3.65;;;;;;;5.84;69.96;97007.91;4937431;28;20772;-71
2021/04/03 05:55:10;;;;;;;20.42;6.97;;;;;;;5.90;69.96;97013.69;4941617;28;20576;-70
2021/04/03 05:57:37;;;;;;;9.65;3.97;;;;;;;6.03;70.21;97016.69;4961750;28;20215;-70
2021/04/03 06:00:05;;;;;;;6.45;3.20;;;;;;;5.96;69.33;97003.13;4961153;28;20788;-71
2021/04/03 06:02:36;;;;;;;11.23;3.20;;;;;;;6.21;68.74;97018.56;4945650;28;20697;-70
2021/04/03 06:05:04;;;;;;;8.60;3.72;;;;;;;6.23;68.77;97027.09;4947829;28;20646;-70
2021/04/03 06:07:32;;;;;;;9.05;3.20;;;;;;;6.11;68.86;97036.16;4960174;28;20663;-70
2021/04/03 06:10:07;;;;;;;7.80;2.53;;;;;;;6.24;68.84;97031.34;4942613;28;20198;-70
2021/04/03 06:12:42;;;;;;;14.25;3.13;;;;;;;6.25;68.59;97035.66;4947201;28;20875;-70
2021/04/03 06:15:13;;;;;;;12.73;3.30;;;;;;;6.26;68.81;97052.84;4949711;28;20182;-71
2021/04/03 06:17:41;;;;;;;10.75;3.55;;;;;;;6.28;68.72;97044.09;4971454;28;20218;-70
2021/04/03 06:20:09;;;;;;;8.00;2.80;;;;;;;6.34;68.32;97040.44;4947656;28;20557;-69
2021/04/03 06:22:56;;;;;;;5.53;3.45;;;;;;;6.40;68.04;97046.22;4943537;28;20237;-70
2021/04/03 06:25:23;;;;;;;8.32;2.70;;;;;;;6.63;67.71;97042.75;4949492;28;20229;-70
2021/04/03 06:28:05;;;;;;;11.75;3.00;;;;;;;6.76;66.52;97049.09;4968087;28;20302;-70
2021/04/03 06:30:34;;;;;;;8.82;3.90;;;;;;;6.91;66.41;97036.41;4967007;28;20630;-70
2021/04/03 06:33:14;;;;;;;5.78;3.20;;;;;;;7.18;65.62;97047.38;4963249;28;20579;-70
2021/04/03 06:35:41;;;;;;;15.95;2.95;;;;;;;7.57;64.88;97043.13;4966784;28;20613;-70
2021/04/03 06:38:21;;;;;;;16.80;3.22;;;;;;;7.97;62.53;97040.44;4964417;28;20534;-70
2021/04/03 06:40:48;;;;;;;10.13;3.45;;;;;;;8.16;62.43;97031.75;4968293;28;20263;-70
2021/04/03 06:43:16;;;;;;;8.45;2.80;;;;;;;8.50;61.34;97037.94;4967114;28;20232;-71
2021/04/03 06:45:45;;;;;;;13.37;3.10;;;;;;;8.55;60.82;97033.41;4964602;28;20550;-70
2021/04/03 06:48:15;;;;;;;15.00;3.70;;;;;;;8.67;60.07;97025.03;4964710;28;20520;-73
2021/04/03 06:50:48;;;;;;;12.70;2.93;;;;;;;8.95;59.36;97028.00;4965163;28;20821;-72
2021/04/03 06:53:17;;;;;;;8.33;2.73;;;;;;;9.32;58.48;97034.78;4967147;28;21005;-72
2021/04/03 06:55:46;;;;;;;12.30;3.93;;;;;;;9.46;58.12;97030.59;4971037;28;20466;-72
2021/04/03 06:58:14;;;;;;;10.20;2.70;;;;;;;9.56;57.41;97039.59;4970935;28;20497;-73
2021/04/03 07:00:43;;;;;;;8.20;2.70;;;;;;;10.01;56.75;97037.22;4968077;28;21178;-72
2021/04/03 07:03:20;;;;;;;5.67;1.97;;;;;;;10.53;54.98;97041.34;4969485;28;20448;-73
2021/04/03 07:05:47;;;;;;;9.77;2.20;;;;;;;10.78;54.31;97027.81;4959862;28;20756;-70
2021/04/03 07:08:16;;;;;;;9.73;2.67;;;;;;;11.34;53.13;97038.47;4963327;28;20484;-72
2021/04/03 07:10:46;;;;;;;7.53;3.80;;;;;;;11.92;52.20;97045.41;4969205;28;20432;-71
2021/04/03 07:13:15;;;;;;;7.03;2.43;;;;;;;12.19;50.42;97043.72;4968531;28;20796;-74
2021/04/03 07:15:45;;;;;;;7.27;2.67;;;;;;;12.21;50.16;97046.25;4972152;28;20873;-73
2021/04/03 07:18:14;;;;;;;5.00;2.40;;;;;;;11.68;50.79;97044.25;4972996;28;20465;-71
2021/04/03 07:20:42;;;;;;;9.30;2.70;;;;;;;11.45;51.59;97043.88;4959228;28;20880;-72
2021/04/03 07:23:11;;;;;;;9.63;2.30;;;;;;;10.89;52.16;97043.69;4959062;28;20468;-72
2021/04/03 07:25:41;;;;;;;5.50;1.73;;;;;;;10.62;52.84;97056.44;4959875;28;20465;-72
2021/04/03 07:28:09;;;;;;;6.53;2.63;;;;;;;10.89;52.81;97060.13;4966003;28;20819;-71
2021/04/03 07:30:46;;;;;;;5.70;2.57;;;;;;;10.82;52.75;97058.81;4968462;28;20759;-72
2021/04/03 07:33:15;;;;;;;12.63;2.23;;;;;;;10.17;53.94;97064.13;4970970;28;20472;-72
2021/04/03 07:35:49;;;;;;;8.43;2.63;;;;;;;9.73;55.10;97072.53;4970790;28;20888;-71
2021/04/03 07:38:20;;;;;;;9.20;2.23;;;;;;;9.40;55.80;97064.69;4973300;28;20468;-72
2021/04/03 07:40:49;;;;;;;2.57;1.90;;;;;;;9.31;56.26;97072.91;4966612;28;20449;-73
2021/04/03 07:43:41;;;;;;;12.13;2.17;;;;;;;9.11;57.00;97083.44;4970703;28;20459;-71
2021/04/03 07:46:12;;;;;;;6.70;2.10;;;;;;;9.50;57.12;97083.25;4967325;28;20901;-73
2021/04/03 07:48:46;;;;;;;6.80;2.07;;;;;;;9.97;56.11;97082.53;4967239;28;20477;-73
2021/04/03 07:51:15;;;;;;;6.87;2.73;;;;;;;10.06;55.44;97079.47;4969345;28;20435;-73
2021/04/03 07:53:44;;;;;;;4.80;2.00;;;;;;;9.97;55.55;97081.66;4969048;28;20560;-71
2021/04/03 07:56:12;;;;;;;12.10;3.00;;;;;;;9.66;55.58;97078.97;4969836;28;20963;-72
2021/04/03 07:58:47;;;;;;;5.90;1.53;;;;;;;9.53;56.98;97089.13;4973532;28;20465;-72
2021/04/03 08:01:24;;;;;;;12.90;2.90;;;;;;;9.48;56.78;97088.53;4991265;28;20460;-72
2021/04/03 08:03:58;;;;;;;7.80;2.30;;;;;;;9.37;57.23;97096.00;4975464;28;20472;-72
2021/04/03 08:06:30;;;;;;;5.93;2.53;;;;;;;9.28;57.34;97099.03;4969419;28;20436;-73
2021/04/03 08:08:58;;;;;;;8.30;2.50;;;;;;;9.11;57.31;97104.22;4967307;28;20491;-73
2021/04/03 08:11:26;;;;;;;6.13;2.00;;;;;;;9.03;57.83;97108.09;4970738;28;20515;-73
2021/04/03 08:13:55;;;;;;;3.50;2.00;;;;;;;9.01;58.00;97108.16;4972268;28;20723;-73
2021/04/03 08:16:26;;;;;;;3.70;2.10;;;;;;;9.06;57.84;97110.56;4970544;28;20442;-72
2021/04/03 08:18:55;;;;;;;10.47;2.60;;;;;;;9.12;58.06;97111.09;4970969;28;20463;-71
2021/04/03 08:21:24;;;;;;;6.33;2.27;;;;;;;9.16;57.63;97104.81;4968545;28;20551;-73
2021/04/03 08:23:53;;;;;;;5.70;1.87;;;;;;;9.53;57.43;97119.47;4968432;28;20448;-72
2021/04/03 08:26:25;;;;;;;5.40;2.50;;;;;;;9.75;56.04;97120.09;4968794;28;20530;-71
2021/04/03 08:28:52;;;;;;;9.33;2.47;;;;;;;10.19;55.09;97119.53;4966293;28;20606;-73
2021/04/03 08:31:21;;;;;;;5.60;2.27;;;;;;;11.02;53.12;97113.25;4969122;28;21127;-72
2021/04/03 08:33:51;;;;;;;5.63;2.10;;;;;;;11.90;51.66;97109.00;4952189;28;20985;-74
2021/04/03 08:36:20;;;;;;;5.40;1.90;;;;;;;12.49;50.58;97104.50;4947364;28;20465;-72
2021/04/03 08:38:48;;;;;;;361.67;178.53;;;;;;;12.80;49.74;97115.59;4977726;28;20458;-72
2021/04/03 08:41:16;;;;;;;13.90;2.67;;;;;;;13.29;48.76;97110.72;4946663;28;20446;-72
2021/04/03 08:43:43;;;;;;;7.80;2.67;;;;;;;13.73;47.96;97108.66;4947649;28;20879;-72
2021/04/03 08:46:14;;;;;;;4.93;1.97;;;;;;;13.64;47.79;97098.81;4949797;28;21062;-72
2021/04/03 08:48:43;;;;;;;3.77;1.73;;;;;;;13.45;47.51;97108.78;4949906;28;21022;-73
2021/04/03 08:51:12;;;;;;;6.57;1.87;;;;;;;13.71;46.39;97110.56;4950075;28;20964;-72
2021/04/03 08:53:41;;;;;;;7.03;1.63;;;;;;;13.81;46.56;97111.63;4947874;28;20981;-71
2021/04/03 08:56:09;;;;;;;4.60;2.00;;;;;;;13.29;46.70;97114.16;4948242;28;20972;-72
2021/04/03 08:58:37;;;;;;;3.67;1.70;;;;;;;13.31;48.03;97114.06;4948925;28;20979;-73
2021/04/03 09:01:05;;;;;;;5.07;1.90;;;;;;;13.54;47.64;97116.88;4960990;28;20505;-72
2021/04/03 09:03:34;;;;;;;11.37;2.17;;;;;;;13.71;46.10;97119.22;4948431;28;20969;-72
2021/04/03 09:06:02;;;;;;;5.03;1.67;;;;;;;13.57;46.07;97128.94;4953236;28;20846;-74
2021/04/03 09:08:30;;;;;;;3.83;1.93;;;;;;;13.53;45.84;97132.66;4937795;28;20875;-71
2021/04/03 09:11:00;;;;;;;7.20;2.50;;;;;;;12.96;45.90;97134.63;4944414;28;20496;-74
2021/04/03 09:13:40;;;;;;;8.20;2.47;;;;;;;12.60;46.76;97149.06;4946513;28;20540;-73
2021/04/03 09:16:09;;;;;;;3.83;1.93;;;;;;;12.18;46.76;97143.84;4950492;28;20553;-73
2021/04/03 09:18:36;;;;;;;5.70;1.90;;;;;;;12.25;47.06;97147.78;4946389;28;20517;-72
2021/04/03 09:21:03;;;;;;;18.13;7.83;;;;;;;12.49;48.01;97146.28;4948646;28;20453;-73
2021/04/03 09:23:31;;;;;;;36.90;20.00;;;;;;;12.89;47.83;97150.72;4946711;28;20552;-72
2021/04/03 09:26:03;;;;;;;20.80;4.83;;;;;;;12.86;47.39;97151.78;4961205;28;20966;-73
2021/04/03 09:28:37;;;;;;;9.40;2.27;;;;;;;12.57;47.94;97157.09;4968717;28;20483;-73
2021/04/03 09:31:04;;;;;;;7.37;2.70;;;;;;;12.46;48.83;97156.94;4968008;28;20480;-72
2021/04/03 09:33:31;;;;;;;4.77;1.63;;;;;;;12.35;48.88;97154.09;4965648;28;21028;-73
2021/04/03 09:36:09;;;;;;;5.10;1.80;;;;;;;11.95;49.50;97148.72;4965263;28;20626;-73
2021/04/03 09:38:38;;;;;;;9.70;2.00;;;;;;;11.92;49.75;97149.75;4964465;28;20490;-73
2021/04/03 09:41:20;;;;;;;9.17;2.17;;;;;;;11.72;50.07;97152.66;4968777;28;21326;-73
2021/04/03 09:43:48;;;;;;;4.70;2.63;;;;;;;11.73;50.19;97149.16;4956523;28;20520;-71
2021/04/03 09:46:14;;;;;;;8.07;2.17;;;;;;;11.89;50.25;97154.28;4956052;28;20809;-72
2021/04/03 09:48:42;;;;;;;7.90;2.40;;;;;;;11.79;50.67;97153.16;4966571;28;20472;-73
2021/04/03 09:51:10;;;;;;;6.90;2.07;;;;;;;11.91;50.17;97155.88;4966081;28;20514;-72
2021/04/03 09:53:39;;;;;;;4.10;2.10;;;;;;;12.17;50.03;97156.97;4968267;28;21058;-72
2021/04/03 09:56:06;;;;;;;8.83;1.73;;;;;;;12.66;49.31;97147.88;4956961;28;20464;-73
2021/04/03 09:58:33;;;;;;;5.10;2.00;;;;;;;13.30;47.54;97141.16;4956672;28;20483;-72
2021/04/03 10:01:05;;;;;;;6.53;2.03;;;;;;;13.22;47.13;97143.44;4971069;28;20967;-72
2021/04/03 10:03:36;;;;;;;8.77;2.23;;;;;;;12.84;46.85;97142.34;4987989;28;20927;-73
2021/04/03 10:06:04;;;;;;;3.30;1.90;;;;;;;12.55;47.36;97147.69;4973025;28;20916;-73
2021/04/03 10:08:32;;;;;;;6.37;2.33;;;;;;;13.11;47.79;97143.25;4972771;28;21129;-72
2021/04/03 10:11:00;;;;;;;13.50;2.53;;;;;;;13.60;46.68;97144.41;4973863;28;20433;-72
2021/04/03 10:13:32;;;;;;;4.73;2.07;;;;;;;14.00;46.42;97148.72;4976836;28;21018;-72
2021/04/03 10:16:02;;;;;;;8.77;2.07;;;;;;;14.37;46.15;97138.28;4977856;28;20917;-74
2021/04/03 10:18:34;;;;;;;11.43;2.60;;;;;;;14.90;43.54;97142.44;4981542;28;20851;-73
2021/04/03 10:21:10;;;;;;;4.17;1.70;;;;;;;15.72;43.26;97132.97;4976727;28;20498;-70
2021/04/03 10:23:40;;;;;;;5.77;1.80;;;;;;;16.22;43.16;97135.28;4973086;28;20467;-70
2021/04/03 10:26:09;;;;;;;5.80;2.00;;;;;;;17.01;41.43;97128.22;4977318;28;20774;-71
2021/04/03 10:28:37;;;;;;;4.60;2.40;;;;;;;16.80;40.94;97132.53;4976077;28;20477;-72
2021/04/03 10:31:04;;;;;;;6.20;2.50;;;;;;;16.55;40.80;97130.94;4966692;28;20435;-72
2021/04/03 10:33:31;;;;;;;12.40;2.63;;;;;;;16.30;40.99;97146.91;4948960;28;20545;-71
2021/04/03 10:35:58;;;;;;;5.77;2.57;;;;;;;16.59;41.48;97140.28;4950918;28;20904;-72
2021/04/03 10:38:25;;;;;;;7.23;2.10;;;;;;;16.70;40.22;97144.72;4950007;28;20456;-72
2021/04/03 10:40:52;;;;;;;8.33;2.67;;;;;;;17.23;40.30;97125.56;4949155;28;20931;-72
2021/04/03 10:43:20;;;;;;;5.43;2.17;;;;;;;17.65;40.06;97131.69;4951012;28;21013;-71
2021/04/03 10:45:47;;;;;;;10.63;2.23;;;;;;;17.61;38.96;97135.53;4949448;28;20936;-72
2021/04/03 10:48:14;;;;;;;7.53;2.00;;;;;;;17.40;38.33;97130.31;4949621;28;20466;-72
2021/04/03 10:50:41;;;;;;;4.50;2.13;;;;;;;17.53;39.06;97129.19;4940793;28;20502;-72
2021/04/03 10:53:08;;;;;;;9.23;2.07;;;;;;;18.24;39.41;97130.22;4939211;28;20937;-72
2021/04/03 10:55:38;;;;;;;5.13;2.10;;;;;;;18.28;38.16;97129.00;4940850;28;20443;-73
2021/04/03 10:58:05;;;;;;;5.17;2.53;;;;;;;18.71;38.75;97123.59;4950093;28;20540;-71
2021/04/03 11:00:33;;;;;;;6.43;2.80;;;;;;;19.50;37.77;97123.59;4952393;28;20776;-72
2021/04/03 11:03:02;;;;;;;8.30;2.30;;;;;;;20.07;35.77;97124.53;4950693;28;20626;-72
2021/04/03 11:05:29;;;;;;;4.73;1.63;;;;;;;20.08;36.34;97125.34;4948412;28;20880;-72
2021/04/03 11:07:56;;;;;;;6.20;2.10;;;;;;;19.84;35.05;97123.09;4951852;28;20473;-72
2021/04/03 11:10:23;;;;;;;12.37;2.73;;;;;;;19.66;35.59;97118.66;4952547;28;20813;-72
2021/04/03 11:12:50;;;;;;;8.10;2.10;;;;;;;18.85;36.30;97121.44;4948678;28;20476;-73
2021/04/03 11:15:17;;;;;;;8.20;2.20;;;;;;;18.79;37.34;97119.31;4945625;28;20444;-71
2021/04/03 11:17:45;;;;;;;26.13;16.27;;;;;;;19.37;36.52;97115.13;4952597;28;20928;-71
2021/04/03 11:20:13;;;;;;;25.20;8.53;;;;;;;18.54;37.73;97111.00;4949624;28;20473;-72
2021/04/03 11:22:41;;;;;;;12.23;5.20;;;;;;;18.73;36.26;97108.47;4966341;28;20466;-72
2021/04/03 11:25:09;;;;;;;7.87;3.37;;;;;;;19.10;36.33;97105.13;4958738;28;20999;-72
2021/04/03 11:27:36;;;;;;;4.90;2.13;;;;;;;18.57;36.29;97121.31;4984276;28;20530;-72
2021/04/03 11:30:13;;;;;;;4.33;2.10;;;;;;;18.12;37.41;97120.69;4970001;28;20816;-71
2021/04/03 11:32:41;;;;;;;3.93;2.10;;;;;;;17.49;37.39;97112.81;4966399;28;20469;-72
2021/04/03 11:35:11;;;;;;;4.47;1.80;;;;;;;17.33;37.77;97122.06;4967455;28;20500;-71
2021/04/03 11:37:38;;;;;;;5.27;2.20;;;;;;;17.97;37.85;97110.59;4964036;28;20446;-71
2021/04/03 11:40:08;;;;;;;4.77;2.33;;;;;;;17.92;38.05;97129.41;4969695;28;20963;-71
2021/04/03 11:42:36;;;;;;;3.63;2.30;;;;;;;17.72;38.52;97127.59;4965488;28;20444;-71
2021/04/03 11:45:04;;;;;;;11.87;2.97;;;;;;;17.17;38.47;97120.78;4968507;28;20440;-71
2021/04/03 11:47:31;;;;;;;7.10;2.33;;;;;;;16.59;39.15;97118.41;4967160;28;20776;-71